Weather observations for the past three days for
Olney-Noble Airport
Metric (Imperial)
Date Time (cdt) Wind (kph) Vis. (km) Weather Sky Cond. Temperature (ºC) Relative Humidity Wind Chill (°C) Heat Index (°C) Pressure Precipitation (cm)
Air Dwpt 6 hour altimeter (cm) sea level (mb) 1 hr 3 hr 6 hr
Max. Min.
04 09:35 S 11 16.09 Partly Cloudy SCT120 18.6 12.2 67% 75.67 0.0
04 09:15 S 13 G 26 16.09 Mostly Cloudy BKN110 17.9 11.8 68% 75.67 0.0
04 08:55 S 15 16.09 Partly Cloudy SCT110 17.6 12.1 70% 75.69 0.0
04 08:35 S 19 G 28 16.09 Fair CLR 16.8 12 74% 75.69 0.0
04 08:15 S 17 16.09 Fair CLR 15.8 11.8 77% 75.69 0.0
04 07:55 S 13 16.09 Partly Cloudy SCT110 15 11.8 81% 75.69 0.0
04 07:35 S 13 16.09 Partly Cloudy SCT110 15 11.7 81% 75.69 0.0
04 07:15 S 11 16.09 Partly Cloudy SCT120 14.4 11.8 85% 75.74 0.0
04 06:55 S 17 16.09 Partly Cloudy SCT120 14 11.9 15.8 13 87% 75.74 0.0 0.38
04 06:35 S 9 16.09 Partly Cloudy SCT120 13.3 12.9 97% 75.74 0.0
04 06:15 S 13 16.09 Partly Cloudy SCT120 13.2 13 99% 75.69 0.0
04 05:55 S 7 16.09 Partly Cloudy SCT120 13 13 100% 75.69 0.0
04 05:35 S 7 16.09 Partly Cloudy SCT100 13.3 12.8 97% 75.74 0.0
04 05:15 S 9 16.09 Overcast OVC100 13.6 12.7 94% 75.74 0.0
04 04:55 S 11 16.09 Overcast SCT070 BKN090 OVC120 13.6 12.6 94% 75.74 0.0 0.38
04 04:35 S 15 16.09 Overcast SCT080 OVC090 13.6 12.5 93% 75.79 0.0 0.36
04 04:15 W 15 G 22 0.00 Thunderstorm BKN070 OVC090 14.6 11.6 82% 75.92 0.0 0.28
04 03:55 W 6 16.09 Thunderstorm OVC090 15.1 11.3 78% 75.77 0.0
04 03:35 S 9 16.09 Overcast SCT070 OVC090 15 11.3 79% 75.74 0.0
04 03:15 W 6 16.09 Thunderstorm in Vicinity OVC080 15 11.5 80% 75.87 0.0
04 02:55 Calm 16.09 Overcast OVC080 14.5 11.7 83% 75.79 0.0
04 02:35 W 19 G 61 0.00 Overcast SCT070 BKN080 OVC100 15 11.4 79% 75.9 0.0
04 02:15 W 30 G 43 16.09 Overcast SCT090 OVC120 15.3 8.2 63% 75.82 0.0
04 01:55 S 11 16.09 Overcast SCT090 OVC120 15.2 7.5 60% 75.74 0.0
04 01:35 Calm 16.09 Mostly Cloudy BKN100 BKN120 15.5 7.1 58% 75.77 0.0
04 01:15 S 9 16.09 Partly Cloudy SCT090 SCT120 15.5 6.8 56% 75.79 0.0
04 00:55 S 6 16.09 Mostly Cloudy BKN090 14.6 7.2 19.1 13.6 61% 75.77 0.0
04 00:35 S 9 16.09 Mostly Cloudy BKN090 14.7 7.2 61% 75.77 0.0
04 00:15 S 7 16.09 Mostly Cloudy BKN080 13.7 7.9 68% 75.79 0.0
03 23:55 Calm 16.09 Overcast OVC090 13.8 8 68% 75.82 0.0
03 23:35 Calm 16.09 Thunderstorm in Vicinity SCT080 BKN100 BKN120 14.2 7.2 63% 75.82 0.0
03 23:15 SE 6 16.09 Mostly Cloudy BKN080 BKN110 14.7 7.1 61% 75.84 0.0
03 22:55 S 7 16.09 Mostly Cloudy BKN080 BKN120 16.3 5.9 50% 75.87 0.0
03 22:35 S 13 16.09 Thunderstorm in Vicinity SCT090 BKN120 16 6.3 53% 75.87 0.0
03 22:15 S 7 16.09 Mostly Cloudy BKN090 BKN110 15.3 7.2 59% 75.87 0.0
03 21:55 S 7 16.09 Mostly Cloudy SCT065 SCT075 BKN110 14.7 7.5 62% 75.9 0.0
03 21:35 SE 7 16.09 Overcast SCT055 OVC085 16.1 6.2 52% 75.87 0.0
03 21:15 S 11 16.09 Thunderstorm in Vicinity BKN085 BKN120 15.8 6.5 54% 75.87 0.0
03 20:55 S 11 16.09 Thunderstorm in Vicinity CLR 16 5.9 51% 75.87 0.0
03 20:35 S 13 16.09 Fair CLR 16.2 6 51% 75.84 0.0
03 20:15 S 15 16.09 Thunderstorm in Vicinity CLR 16.7 6 49% 75.84 0.0
03 19:55 S 13 16.09 Fair CLR 16.8 6.3 50% 75.87 0.0
03 19:35 S 13 16.09 Fair CLR 18.2 5.4 43% 75.87 0.0
03 19:15 S 11 16.09 Fair CLR 18.8 5 40% 75.9 0.0
03 18:55 S 9 16.09 Fair CLR 19.2 5 19.9 17.2 39% 75.92 0.0
03 18:35 S 9 16.09 Fair CLR 19.6 4.6 37% 75.92 0.0
03 18:15 SW 17 G 30 16.09 Fair CLR 19.8 4.3 36% 75.92 0.0
03 17:55 SW 17 G 35 16.09 Fair CLR 19.8 4.2 36% 75.9 0.0
03 17:35 S 24 G 41 16.09 Fair CLR 19.7 4.5 37% 75.87 0.0
03 17:15 SW 24 G 44 16.09 Fair CLR 19.7 4.7 37% 75.9 0.0
03 16:55 S 20 G 43 16.09 Fair CLR 19.6 5.7 40% 75.92 0.0
03 16:35 S 19 G 41 16.09 Fair CLR 19.5 5.5 40% 75.95 0.0
03 16:15 S 33 16.09 Fair and Breezy CLR 19.3 5.8 41% 75.97 0.0
03 15:55 S 20 G 37 16.09 Fair CLR 19 5.8 42% 76.02 0.0
03 15:35 S 28 G 44 16.09 Fair CLR 18.9 5.8 42% 76.05 0.0
03 15:15 S 20 G 35 16.09 Fair CLR 18.6 5.5 42% 76.07 0.0
03 14:55 S 22 G 41 16.09 Fair CLR 18.6 5.7 43% 76.15 0.0
03 14:35 S 30 G 43 16.09 Fair CLR 18.3 5.9 44% 76.15 0.0
03 14:15 SW 15 G 30 16.09 Fair CLR 18.5 6.1 44% 76.2 0.0
03 13:55 SW 22 G 37 16.09 Fair CLR 18 5.8 45% 76.2 0.0
03 13:35 S 22 G 37 16.09 Fair CLR 17.7 5 43% 76.25 0.0
03 13:15 S 28 G 37 16.09 Fair CLR 17.5 4.5 42% 76.3 0.0
03 12:55 S 20 G 31 16.09 Fair CLR 17.5 5.2 17.6 6.3 44% 76.33 0.0
03 12:35 S 20 G 31 16.09 Fair CLR 17 5 45% 76.38 0.0
03 12:15 SW 17 G 31 16.09 Fair CLR 16.4 4.8 46% 76.4 0.0
03 11:55 SW 20 G 33 16.09 Fair CLR 16.1 5.2 49% 76.43 0.0
03 11:35 S 19 G 31 16.09 Fair CLR 15.7 5.5 51% 76.45 0.0
03 11:15 SW 15 G 33 16.09 Fair CLR 15.3 4.8 50% 76.48 0.0
03 10:55 S 17 16.09 Fair CLR 15.1 5.2 52% 76.48 0.0
03 10:35 S 13 G 28 16.09 Fair CLR 14.5 5.3 54% 76.5 0.0
03 10:15 SW 19 G 30 16.09 Fair CLR 14 4.7 54% 76.5 0.0
03 09:55 S 19 G 26 16.09 Fair CLR 13.5 4.7 56% 76.5 0.0
03 09:35 SW 17 G 31 16.09 Fair CLR 13 3.6 53% 76.5 0.0
03 09:15 S 17 G 28 16.09 Fair CLR 12.6 4.7 59% 76.53 0.0
03 08:55 S 15 16.09 Fair CLR 12 4.9 62% 76.53 0.0
03 08:35 SW 13 16.09 Fair CLR 11.2 4.7 65% 76.53 0.0
03 08:15 S 15 16.09 Fair CLR 10.5 4.5 67% 76.53 0.0
03 07:55 S 11 16.09 Fair CLR 10 4.8 70% 9 76.53 0.0
03 07:35 S 6 16.09 Fair CLR 8.8 5.9 82% 76.53 0.0
03 07:15 S 7 16.09 Fair CLR 7.2 6 92% 6 76.53 0.0
03 06:55 S 7 16.09 Fair CLR 6.1 6.1 6.1 3.6 100% 5 76.53 0.0
03 06:35 S 6 16.09 Fair CLR 4.9 4.9 100% 76.5 0.0
03 06:15 Calm 16.09 Fair CLR 4.1 4.1 100% 76.5 0.0
03 05:55 Calm 16.09 Fair CLR 3.7 3.7 100% 76.48 0.0
03 05:35 Calm 16.09 Fair CLR 3.7 3.7 100% 76.48 0.0
03 05:15 Calm 16.09 Fair CLR 4.1 4.1 100% 76.48 0.0
03 04:55 Calm 16.09 Fair CLR 4.2 4.2 100% 76.48 0.0
03 04:35 Calm 16.09 Fair CLR 4.3 4.2 99% 76.5 0.0
03 04:15 Calm 16.09 Fair CLR 4.8 4.5 98% 76.5 0.0
03 03:55 Calm 16.09 Fair CLR 4.6 4.6 100% 76.5 0.0
03 03:35 Calm 16.09 Fair CLR 4.5 4.5 100% 76.5 0.0
03 03:15 Calm 16.09 Fair CLR 4.8 4.8 100% 76.5 0.0
03 02:55 Calm 16.09 Fair CLR 4.8 4.5 98% 76.5 0.0
03 02:35 Calm 16.09 Fair CLR 4.6 4.6 100% 76.48 0.0
03 02:15 Calm 16.09 Fair CLR 4.7 4.7 100% 76.5 0.0
03 01:55 Calm 16.09 Fair CLR 4.5 4.5 100% 76.5 0.0
03 01:35 Calm 16.09 Fair CLR 4.5 4.5 100% 76.5 0.0
03 01:15 Calm 16.09 Fair CLR 4.8 4.8 100% 76.53 0.0
03 00:55 Calm 16.09 Fair CLR 5 5 13.1 5 100% 76.53 0.0
03 00:35 Calm 16.09 Fair CLR 5.2 5.2 100% 76.53 0.0
03 00:15 Calm 16.09 Fair CLR 5.3 5 98% 76.53 0.0
02 23:55 Calm 16.09 Fair CLR 5.5 5.3 99% 76.53 0.0
02 23:35 Calm 16.09 Fair CLR 5.5 5.1 97% 76.53 0.0
02 23:15 Calm 16.09 Fair CLR 6 5.3 95% 76.53 0.0
02 22:55 E 7 16.09 Fair CLR 6 3.4 84% 5 76.53 0.0
02 22:35 Calm 16.09 Fair CLR 6.8 4.2 84% 76.5 0.0
02 22:15 Calm 16.09 Fair CLR 6.8 3.9 82% 76.53 0.0
02 21:55 Calm 16.09 Fair CLR 6.9 3.5 79% 76.53 0.0
02 21:35 Calm 16.09 Fair CLR 7.7 3.9 77% 76.5 0.0
02 21:15 Calm 16.09 Fair CLR 8.3 2.5 67% 76.5 0.0
02 20:55 Calm 16.09 Fair CLR 8.6 2.4 65% 76.48 0.0
02 20:35 Calm 16.09 Fair CLR 9 3.5 69% 76.48 0.0
02 20:15 Calm 16.09 Fair CLR 9.7 3.4 65% 76.45 0.0
02 19:55 Calm 16.09 Partly Cloudy SCT070 SCT080 11.6 0.3 46% 76.45 0.0
02 19:35 N 6 16.09 Mostly Cloudy BKN080 12.2 0.2 44% 76.43 0.0
02 19:15 N 7 16.09 Mostly Cloudy BKN080 12.8 0.5 43% 76.43 0.0
02 18:55 NW 9 16.09 Partly Cloudy SCT080 13.2 0 14.4 12.5 41% 76.43 0.0
02 18:35 N 15 16.09 Fair CLR 13.6 -1 37% 76.4 0.0
02 18:15 N 13 16.09 Partly Cloudy SCT070 13 -0.3 40% 76.4 0.0
02 17:55 N 9 16.09 Mostly Cloudy BKN070 14.3 -0.6 36% 76.4 0.0
02 17:35 N 9 G 26 16.09 Partly Cloudy SCT070 SCT085 14.2 -0.2 37% 76.4 0.0
02 17:15 N 17 G 28 16.09 Partly Cloudy SCT070 SCT085 SCT090 14.1 0 38% 76.4 0.0
02 16:55 N 7 16.09 Partly Cloudy SCT070 SCT085 13.5 0.1 40% 76.4 0.0
02 16:35 N 15 G 28 16.09 Mostly Cloudy BKN070 BKN085 14.1 1 41% 76.4 0.0
02 16:15 N 13 16.09 Mostly Cloudy SCT070 BKN085 14.3 0.7 40% 76.4 0.0
02 15:55 NW 11 16.09 Overcast SCT060 SCT070 OVC080 13.2 2.3 48% 76.43 0.0
02 15:35 NE 17 16.09 Mostly Cloudy BKN060 BKN070 BKN090 13.3 1.7 46% 76.43 0.0
02 15:15 N 11 16.09 Mostly Cloudy BKN080 13.7 2 45% 76.43 0.0
02 14:55 N 9 16.09 Overcast SCT060 SCT070 OVC080 12.8 2 48% 76.45 0.0
02 14:35 N 11 16.09 Overcast SCT050 BKN065 OVC080 12.5 1.6 48% 76.45 0.0
02 14:15 N 11 16.09 Overcast SCT049 BKN065 OVC090 13.3 1.4 45% 76.45 0.0
02 13:55 NE 9 16.09 Overcast SCT046 BKN065 OVC080 12.9 2.5 50% 76.48 0.0
02 13:35 NE 9 11.27 Overcast BKN045 BKN060 OVC080 12.5 2.5 51% 76.48 0.0
02 13:15 NE 15 16.09 Overcast SCT041 BKN075 OVC095 12.5 1.9 49% 76.48 0.0
02 12:55 N 7 16.09 Overcast SCT032 BKN060 OVC095 12.5 4.1 12.5 8.5 57% 76.48 0.0
02 12:35 Calm 16.09 Overcast SCT032 BKN050 OVC085 11.7 4.3 61% 76.5 0.0
02 12:15 NE 7 16.09 Overcast SCT032 BKN040 OVC085 11.2 4.5 64% 76.5 0.0
02 11:55 E 9 16.09 Overcast SCT023 BKN046 OVC090 11 4.2 63% 76.53 0.0
02 11:35 NE 7 16.09 Mostly Cloudy BKN022 BKN100 11.4 5.4 67% 76.53 0.0
02 11:15 N 9 16.09 Mostly Cloudy SCT018 SCT050 BKN095 10.9 6.5 75% 76.53 0.0
02 10:55 NE 9 16.09 Partly Cloudy SCT020 SCT095 11.2 6 71% 76.53 0.0
02 10:35 E 11 16.09 Mostly Cloudy SCT060 SCT070 BKN090 10.9 6.1 73% 76.5 0.0
02 10:15 NE 7 16.09 Overcast SCT045 BKN060 OVC085 9.3 6.2 81% 9 76.5 0.0
02 09:55 E 6 8.05 Overcast BKN044 OVC050 9.1 5.3 77% 76.5 0.0
02 09:35 NE 9 16.09 Overcast OVC046 9.6 4.5 71% 9 76.5 0.0
02 09:15 E 13 16.09 Overcast OVC048 9.8 4.6 70% 8 76.48 0.0
02 08:55 E 17 16.09 Overcast OVC048 9.8 5.5 75% 8 76.48 0.0
02 08:35 E 13 16.09 Overcast OVC048 9.3 5.1 75% 8 76.45 0.0
02 08:15 E 11 16.09 Overcast OVC048 9.5 5.5 76% 8 76.45 0.0
02 07:55 E 11 16.09 Overcast BKN048 BKN070 OVC110 9.2 6.1 81% 8 76.45 0.0
02 07:35 E 11 16.09 Mostly Cloudy SCT050 BKN070 BKN095 9.1 6.2 82% 8 76.43 0.0
02 07:15 NE 7 16.09 Overcast OVC050 8.7 6.7 87% 8 76.43 0.0
02 06:55 Calm 16.09 Overcast OVC050 8.5 6.5 9.1 8 87% 76.4 0.0
02 06:35 Calm 16.09 Overcast BKN050 OVC090 8.5 6.2 86% 76.4 0.0
02 06:15 E 6 16.09 Overcast OVC050 8.5 6 84% 76.38 0.0
02 05:55 NE 7 16.09 Overcast OVC050 8.5 5.8 83% 8 76.38 0.0
02 05:35 NE 9 16.09 Overcast SCT050 OVC065 8.3 6 86% 7 76.35 0.0
02 05:15 E 6 16.09 Mostly Cloudy BKN065 BKN110 8.2 5.6 84% 76.33 0.0
02 04:55 NE 9 16.09 Mostly Cloudy BKN110 8 5.7 86% 7 76.35 0.0
02 04:35 NE 7 16.09 Mostly Cloudy SCT100 BKN120 8.5 6 84% 8 76.35 0.0
02 04:15 NE 6 16.09 Overcast SCT070 BKN090 OVC120 8.6 6.1 84% 76.35 0.0
02 03:55 Calm 16.09 Overcast SCT060 SCT070 OVC080 9 5.5 79% 76.38 0.0
02 03:35 Calm 16.09 Overcast BKN060 OVC080 9 5.6 79% 76.38 0.0
02 03:15 Calm 16.09 Overcast SCT060 BKN075 OVC085 9 5.4 78% 76.38 0.0
02 02:55 Calm 16.09 Overcast SCT065 BKN085 OVC110 8.9 5.3 78% 76.35 0.0
02 02:35 Calm 16.09 Overcast SCT085 OVC110 8.8 5.8 82% 76.35 0.0
02 02:15 Calm 16.09 Overcast BKN085 OVC120 8.6 5.8 83% 76.33 0.0
02 01:55 E 6 16.09 Overcast OVC075 8.7 5.4 80% 76.33 0.0
02 01:35 Calm 16.09 Overcast SCT050 SCT075 OVC090 8.8 5.3 79% 76.35 0.0
02 01:15 Calm 16.09 Overcast SCT050 SCT065 OVC090 8.8 5 77% 76.38 0.0
02 00:55 Calm 16.09 Overcast SCT070 BKN090 OVC110 8.7 5 13.7 8 78% 76.38 0.0
02 00:35 NE 6 16.09 Mostly Cloudy SCT070 SCT080 BKN110 8.5 4.7 77% 76.38 0.0
02 00:15 NE 7 16.09 Mostly Cloudy BKN110 8.4 4.9 79% 8 76.38 0.0
01 23:55 NE 7 16.09 Mostly Cloudy SCT090 BKN110 8.9 4.7 75% 8 76.38 0.0
01 23:35 NE 7 16.09 Partly Cloudy SCT080 SCT100 9 4.8 75% 8 76.38 0.0
01 23:15 NE 9 16.09 Mostly Cloudy SCT080 BKN100 8.8 5.5 80% 8 76.38 0.0
01 22:55 NE 7 16.09 Overcast OVC100 9.4 5.3 76% 9 76.38 0.0
01 22:35 NE 7 16.09 Partly Cloudy SCT110 8.5 5.6 82% 8 76.38 0.0
01 22:15 Calm 16.09 Fair CLR 8.1 6.4 89% 76.38 0.0
01 21:55 Calm 16.09 Fair CLR 9 6.5 85% 76.38 0.0
01 21:35 Calm 16.09 Partly Cloudy SCT100 9.2 5.6 78% 76.38 0.0
01 21:15 Calm 16.09 Partly Cloudy SCT100 9.4 5.3 76% 76.35 0.0
01 20:55 Calm 16.09 Partly Cloudy SCT100 9.8 6.4 80% 76.35 0.0
01 20:35 Calm 16.09 Fair CLR 10.3 5.9 74% 76.33 0.0
01 20:15 Calm 16.09 Fair CLR 11 5.8 71% 76.33 0.0
01 19:55 Calm 16.09 Fair CLR 12 3.1 55% 76.3 0.0
01 19:35 Calm 16.09 Fair CLR 12.5 2.8 52% 76.28 0.0
01 19:15 N 6 16.09 Fair CLR 13.3 2.7 49% 76.25 0.0
01 18:55 N 7 16.09 Fair CLR 13.7 2.5 15.2 13.4 47% 76.25 0.0
01 18:35 N 13 16.09 Partly Cloudy SCT050 14 3.1 48% 76.2 0.0
01 18:15 N 11 16.09 Fair CLR 14.3 3.3 48% 76.23 0.0
01 17:55 N 11 16.09 Fair CLR 14.5 4 50% 76.25 0.0
01 17:35 N 9 16.09 Fair CLR 14.5 3.7 49% 76.28 0.0
01 17:15 NW 17 16.09 Mostly Cloudy SCT048 SCT060 BKN085 14.8 3.8 48% 76.25 0.0
01 16:55 N 11 16.09 Overcast SCT048 BKN060 OVC070 14.4 3.6 49% 76.28 0.0
01 16:35 NW 15 16.09 Mostly Cloudy BKN060 BKN070 14.1 2.9 47% 76.28 0.0
01 16:15 NW 17 16.09 Partly Cloudy SCT065 SCT085 15 3.3 46% 76.28 0.0
01 15:55 NW 13 16.09 Partly Cloudy SCT055 SCT085 SCT090 14.7 3.4 47% 76.33 0.0
01 15:35 NW 17 16.09 Partly Cloudy SCT050 SCT085 15.1 3.9 47% 76.33 0.0
01 15:15 N 15 16.09 Partly Cloudy SCT050 SCT065 SCT085 14.9 3.8 48% 76.33 0.0
01 14:55 NW 15 16.09 Mostly Cloudy BKN050 BKN065 BKN080 14 3.2 48% 76.35 0.0
01 14:35 N 7 16.09 Mostly Cloudy SCT050 BKN065 BKN080 14.1 2.7 46% 76.35 0.0
01 14:15 NW 17 G 28 16.09 Mostly Cloudy SCT050 BKN065 BKN080 13.8 3.9 52% 76.38 0.0
01 13:55 N 20 G 26 16.09 Partly Cloudy SCT048 SCT060 SCT080 14.1 3.2 48% 76.38 0.0
01 13:35 N 20 G 30 16.09 Mostly Cloudy BKN048 BKN060 BKN080 13.9 3.3 49% 76.38 0.0
01 13:15 N 17 G 28 16.09 Mostly Cloudy SCT048 BKN060 13.9 3.4 49% 76.38 0.0
01 12:55 NW 20 G 28 16.09 Mostly Cloudy BKN048 BKN060 13.5 3.8 13.9 9.5 52% 76.35 0.0
01 12:35 NW 19 16.09 Mostly Cloudy SCT046 BKN050 13.5 4.2 54% 76.35 0.0
01 12:15 N 22 G 35 16.09 Partly Cloudy SCT044 13.2 3.3 51% 76.38 0.0
01 11:55 N 22 G 30 16.09 Partly Cloudy SCT044 13 4 55% 76.35 0.0
01 11:35 NW 24 G 37 16.09 Partly Cloudy SCT041 SCT048 12.8 3.1 52% 76.35 0.0
01 11:15 NW 20 G 30 16.09 Partly Cloudy SCT039 SCT048 12.8 3.7 54% 76.35 0.0
01 10:55 N 19 G 30 16.09 Partly Cloudy SCT039 SCT048 12.6 4.2 57% 76.38 0.0
01 10:35 NW 22 G 33 16.09 Partly Cloudy SCT034 SCT041 SCT047 12.2 4.2 58% 76.35 0.0
01 10:15 NW 22 G 33 16.09 Partly Cloudy SCT032 SCT041 11.7 4.9 63% 76.33 0.0
Date Time (cdt) Wind (kph) Vis. (km) Weather Sky Cond. Air Dwpt Max. Min. Relative Humidity Wind Chill (°C) Heat Index (°C) altimeter (cm) sea level (mb) 1 hr 3 hr 6 hr
6 hour
Temperature (ºC) Pressure Precipitation (cm)